sensor_id;sensor_type;location;lat;lon;timestamp;temperature;humidity
10788;DHT22;5446;50.826;4.380;2022-11-15T00:01:35;11.50;99.90
10788;DHT22;5446;50.826;4.380;2022-11-15T00:04:03;11.50;99.90
10788;DHT22;5446;50.826;4.380;2022-11-15T00:06:29;11.50;99.90
10788;DHT22;5446;50.826;4.380;2022-11-15T00:08:57;11.60;99.90
10788;DHT22;5446;50.826;4.380;2022-11-15T00:11:23;11.60;99.90
10788;DHT22;5446;50.826;4.380;2022-11-15T00:13:48;11.60;99.90
10788;DHT22;5446;50.826;4.380;2022-11-15T00:16:14;11.60;99.90
10788;DHT22;5446;50.826;4.380;2022-11-15T00:18:40;11.50;99.90
10788;DHT22;5446;50.826;4.380;2022-11-15T00:21:11;11.50;99.90
10788;DHT22;5446;50.826;4.380;2022-11-15T00:23:37;11.60;99.90
10788;DHT22;5446;50.826;4.380;2022-11-15T00:26:03;11.60;99.90
10788;DHT22;5446;50.826;4.380;2022-11-15T00:28:29;11.60;99.90
10788;DHT22;5446;50.826;4.380;2022-11-15T00:31:04;11.60;99.90
10788;DHT22;5446;50.826;4.380;2022-11-15T00:33:30;11.60;99.90
10788;DHT22;5446;50.826;4.380;2022-11-15T00:36:04;11.60;99.90
10788;DHT22;5446;50.826;4.380;2022-11-15T00:38:34;11.60;99.90
10788;DHT22;5446;50.826;4.380;2022-11-15T00:41:01;11.60;99.90
10788;DHT22;5446;50.826;4.380;2022-11-15T00:43:27;11.60;99.90
10788;DHT22;5446;50.826;4.380;2022-11-15T00:45:53;11.60;99.90
10788;DHT22;5446;50.826;4.380;2022-11-15T00:48:18;11.70;99.90
10788;DHT22;5446;50.826;4.380;2022-11-15T00:50:44;11.70;99.90
10788;DHT22;5446;50.826;4.380;2022-11-15T00:53:10;11.70;99.90
10788;DHT22;5446;50.826;4.380;2022-11-15T00:55:36;11.70;99.90
10788;DHT22;5446;50.826;4.380;2022-11-15T00:58:01;11.70;99.90
10788;DHT22;5446;50.826;4.380;2022-11-15T01:00:27;11.70;99.90
10788;DHT22;5446;50.826;4.380;2022-11-15T01:02:53;11.70;99.90
10788;DHT22;5446;50.826;4.380;2022-11-15T01:05:18;11.80;99.90
10788;DHT22;5446;50.826;4.380;2022-11-15T01:07:44;11.80;99.90
10788;DHT22;5446;50.826;4.380;2022-11-15T01:10:10;11.80;99.90
10788;DHT22;5446;50.826;4.380;2022-11-15T01:12:35;11.80;99.90
10788;DHT22;5446;50.826;4.380;2022-11-15T01:15:02;11.80;99.90
10788;DHT22;5446;50.826;4.380;2022-11-15T01:17:27;11.80;99.90
10788;DHT22;5446;50.826;4.380;2022-11-15T01:19:53;11.80;99.90
10788;DHT22;5446;50.826;4.380;2022-11-15T01:22:19;11.80;99.90
10788;DHT22;5446;50.826;4.380;2022-11-15T01:24:45;11.80;99.90
10788;DHT22;5446;50.826;4.380;2022-11-15T01:27:11;11.80;99.90
10788;DHT22;5446;50.826;4.380;2022-11-15T01:29:36;11.80;99.90
10788;DHT22;5446;50.826;4.380;2022-11-15T01:32:02;11.80;99.90
10788;DHT22;5446;50.826;4.380;2022-11-15T01:34:28;11.70;99.90
10788;DHT22;5446;50.826;4.380;2022-11-15T01:36:53;11.70;99.90
10788;DHT22;5446;50.826;4.380;2022-11-15T01:39:19;11.70;99.90
10788;DHT22;5446;50.826;4.380;2022-11-15T01:41:45;11.70;99.90
10788;DHT22;5446;50.826;4.380;2022-11-15T01:44:42;11.70;99.90
10788;DHT22;5446;50.826;4.380;2022-11-15T01:47:16;11.70;99.90
10788;DHT22;5446;50.826;4.380;2022-11-15T01:50:06;11.70;99.90
10788;DHT22;5446;50.826;4.380;2022-11-15T01:52:34;11.70;99.90
10788;DHT22;5446;50.826;4.380;2022-11-15T01:55:20;11.60;99.90
10788;DHT22;5446;50.826;4.380;2022-11-15T01:57:50;11.70;99.90
10788;DHT22;5446;50.826;4.380;2022-11-15T02:00:17;11.60;99.90
10788;DHT22;5446;50.826;4.380;2022-11-15T02:02:43;11.60;99.90
10788;DHT22;5446;50.826;4.380;2022-11-15T02:05:09;11.70;99.90
10788;DHT22;5446;50.826;4.380;2022-11-15T02:07:35;11.60;99.90
10788;DHT22;5446;50.826;4.380;2022-11-15T02:10:22;11.60;99.90
10788;DHT22;5446;50.826;4.380;2022-11-15T02:12:49;11.60;99.90
10788;DHT22;5446;50.826;4.380;2022-11-15T02:15:16;11.60;99.90
10788;DHT22;5446;50.826;4.380;2022-11-15T02:21:02;11.60;99.90
10788;DHT22;5446;50.826;4.380;2022-11-15T02:24:42;11.50;99.90
10788;DHT22;5446;50.826;4.380;2022-11-15T02:32:09;11.50;99.90
10788;DHT22;5446;50.826;4.380;2022-11-15T02:40:14;11.60;99.90
10788;DHT22;5446;50.826;4.380;2022-11-15T02:42:53;11.50;99.90
10788;DHT22;5446;50.826;4.380;2022-11-15T02:45:46;11.50;99.90
10788;DHT22;5446;50.826;4.380;2022-11-15T02:48:15;11.50;99.90
10788;DHT22;5446;50.826;4.380;2022-11-15T02:50:42;11.50;99.90
10788;DHT22;5446;50.826;4.380;2022-11-15T02:53:09;11.50;99.90
10788;DHT22;5446;50.826;4.380;2022-11-15T02:55:38;11.50;99.90
10788;DHT22;5446;50.826;4.380;2022-11-15T03:04:33;11.50;99.90
10788;DHT22;5446;50.826;4.380;2022-11-15T03:07:29;11.50;99.90
10788;DHT22;5446;50.826;4.380;2022-11-15T03:10:24;11.50;99.90
10788;DHT22;5446;50.826;4.380;2022-11-15T03:15:57;11.50;99.90
10788;DHT22;5446;50.826;4.380;2022-11-15T03:18:35;11.50;99.90
10788;DHT22;5446;50.826;4.380;2022-11-15T03:21:05;11.50;99.90
10788;DHT22;5446;50.826;4.380;2022-11-15T03:23:33;11.50;99.90
10788;DHT22;5446;50.826;4.380;2022-11-15T03:26:00;11.40;99.90
10788;DHT22;5446;50.826;4.380;2022-11-15T03:28:43;11.40;99.90
10788;DHT22;5446;50.826;4.380;2022-11-15T03:31:12;11.50;99.90
10788;DHT22;5446;50.826;4.380;2022-11-15T03:33:58;11.50;99.90
10788;DHT22;5446;50.826;4.380;2022-11-15T03:36:25;11.40;99.90
10788;DHT22;5446;50.826;4.380;2022-11-15T03:38:59;11.40;99.90
10788;DHT22;5446;50.826;4.380;2022-11-15T03:44:34;11.40;99.90
10788;DHT22;5446;50.826;4.380;2022-11-15T03:47:34;11.40;99.90
10788;DHT22;5446;50.826;4.380;2022-11-15T03:50:04;11.40;99.90
10788;DHT22;5446;50.826;4.380;2022-11-15T03:52:33;11.40;99.90
10788;DHT22;5446;50.826;4.380;2022-11-15T03:55:01;11.30;99.90
10788;DHT22;5446;50.826;4.380;2022-11-15T03:57:28;11.30;99.90
10788;DHT22;5446;50.826;4.380;2022-11-15T03:59:54;11.30;99.90
10788;DHT22;5446;50.826;4.380;2022-11-15T04:02:20;11.30;99.90
10788;DHT22;5446;50.826;4.380;2022-11-15T04:04:46;11.30;99.90
10788;DHT22;5446;50.826;4.380;2022-11-15T04:07:11;11.30;99.90
10788;DHT22;5446;50.826;4.380;2022-11-15T04:09:37;11.30;99.90
10788;DHT22;5446;50.826;4.380;2022-11-15T04:12:21;11.20;99.90
10788;DHT22;5446;50.826;4.380;2022-11-15T04:15:17;11.20;99.90
10788;DHT22;5446;50.826;4.380;2022-11-15T04:17:46;11.20;99.90
10788;DHT22;5446;50.826;4.380;2022-11-15T04:20:25;11.20;99.90
10788;DHT22;5446;50.826;4.380;2022-11-15T04:23:12;11.20;99.90
10788;DHT22;5446;50.826;4.380;2022-11-15T04:25:59;11.20;99.90
10788;DHT22;5446;50.826;4.380;2022-11-15T04:28:25;11.20;99.90
10788;DHT22;5446;50.826;4.380;2022-11-15T04:30:51;11.10;99.90
10788;DHT22;5446;50.826;4.380;2022-11-15T04:33:16;11.10;99.90
10788;DHT22;5446;50.826;4.380;2022-11-15T04:35:42;11.10;99.90
10788;DHT22;5446;50.826;4.380;2022-11-15T04:38:10;11.10;99.90
10788;DHT22;5446;50.826;4.380;2022-11-15T04:40:37;11.10;99.90
10788;DHT22;5446;50.826;4.380;2022-11-15T04:43:04;11.00;99.90
10788;DHT22;5446;50.826;4.380;2022-11-15T04:45:30;11.00;99.90
10788;DHT22;5446;50.826;4.380;2022-11-15T04:47:55;11.00;99.90
10788;DHT22;5446;50.826;4.380;2022-11-15T04:50:21;10.90;99.90
10788;DHT22;5446;50.826;4.380;2022-11-15T04:52:52;10.80;99.90
10788;DHT22;5446;50.826;4.380;2022-11-15T04:55:18;10.80;99.90
10788;DHT22;5446;50.826;4.380;2022-11-15T04:57:44;10.80;99.90
10788;DHT22;5446;50.826;4.380;2022-11-15T05:00:12;10.70;99.90
10788;DHT22;5446;50.826;4.380;2022-11-15T05:02:38;10.70;99.90
10788;DHT22;5446;50.826;4.380;2022-11-15T05:05:24;10.60;99.90
10788;DHT22;5446;50.826;4.380;2022-11-15T05:07:50;10.60;99.90
10788;DHT22;5446;50.826;4.380;2022-11-15T05:10:15;10.50;99.90
10788;DHT22;5446;50.826;4.380;2022-11-15T05:12:41;10.40;99.90
10788;DHT22;5446;50.826;4.380;2022-11-15T05:15:07;10.40;99.90
10788;DHT22;5446;50.826;4.380;2022-11-15T05:17:33;10.40;99.90
10788;DHT22;5446;50.826;4.380;2022-11-15T05:19:59;10.30;99.90
10788;DHT22;5446;50.826;4.380;2022-11-15T05:22:25;10.40;99.90
10788;DHT22;5446;50.826;4.380;2022-11-15T05:24:51;10.30;99.90
10788;DHT22;5446;50.826;4.380;2022-11-15T05:27:16;10.30;99.90
10788;DHT22;5446;50.826;4.380;2022-11-15T05:29:42;10.20;99.90
10788;DHT22;5446;50.826;4.380;2022-11-15T05:32:09;10.10;99.90
10788;DHT22;5446;50.826;4.380;2022-11-15T05:34:35;10.10;99.90
10788;DHT22;5446;50.826;4.380;2022-11-15T05:37:01;10.10;99.90
10788;DHT22;5446;50.826;4.380;2022-11-15T05:39:26;10.10;99.90
10788;DHT22;5446;50.826;4.380;2022-11-15T05:41:56;10.00;99.90
10788;DHT22;5446;50.826;4.380;2022-11-15T05:44:23;9.90;99.90
10788;DHT22;5446;50.826;4.380;2022-11-15T05:46:51;9.90;99.90
10788;DHT22;5446;50.826;4.380;2022-11-15T05:49:21;9.80;99.90
10788;DHT22;5446;50.826;4.380;2022-11-15T05:51:49;9.80;99.90
10788;DHT22;5446;50.826;4.380;2022-11-15T05:54:16;9.70;99.90
10788;DHT22;5446;50.826;4.380;2022-11-15T05:56:43;9.70;99.90
10788;DHT22;5446;50.826;4.380;2022-11-15T05:59:09;9.80;99.90
10788;DHT22;5446;50.826;4.380;2022-11-15T06:01:36;9.90;99.90
10788;DHT22;5446;50.826;4.380;2022-11-15T06:04:02;9.90;99.90
10788;DHT22;5446;50.826;4.380;2022-11-15T06:06:29;9.90;99.90
10788;DHT22;5446;50.826;4.380;2022-11-15T06:08:54;9.80;99.90
10788;DHT22;5446;50.826;4.380;2022-11-15T06:11:20;9.70;99.90
10788;DHT22;5446;50.826;4.380;2022-11-15T06:13:46;9.60;99.90
10788;DHT22;5446;50.826;4.380;2022-11-15T06:16:11;9.60;99.90
10788;DHT22;5446;50.826;4.380;2022-11-15T06:18:37;9.60;99.90
10788;DHT22;5446;50.826;4.380;2022-11-15T06:21:04;9.50;99.90
10788;DHT22;5446;50.826;4.380;2022-11-15T06:23:34;9.50;99.90
10788;DHT22;5446;50.826;4.380;2022-11-15T06:26:00;9.40;99.90
10788;DHT22;5446;50.826;4.380;2022-11-15T06:28:33;9.40;99.90
10788;DHT22;5446;50.826;4.380;2022-11-15T06:31:06;9.40;99.90
10788;DHT22;5446;50.826;4.380;2022-11-15T06:33:32;9.30;99.90
10788;DHT22;5446;50.826;4.380;2022-11-15T06:36:03;9.20;99.90
10788;DHT22;5446;50.826;4.380;2022-11-15T06:38:29;9.20;99.90
10788;DHT22;5446;50.826;4.380;2022-11-15T06:40:55;9.20;99.90
10788;DHT22;5446;50.826;4.380;2022-11-15T06:43:21;9.20;99.90
10788;DHT22;5446;50.826;4.380;2022-11-15T06:45:46;9.10;99.90
10788;DHT22;5446;50.826;4.380;2022-11-15T06:48:12;9.10;99.90
10788;DHT22;5446;50.826;4.380;2022-11-15T06:50:37;9.10;99.90
10788;DHT22;5446;50.826;4.380;2022-11-15T06:53:03;9.10;99.90
10788;DHT22;5446;50.826;4.380;2022-11-15T06:55:29;9.10;99.90
10788;DHT22;5446;50.826;4.380;2022-11-15T06:57:55;9.00;99.90
10788;DHT22;5446;50.826;4.380;2022-11-15T07:00:21;9.00;99.90
10788;DHT22;5446;50.826;4.380;2022-11-15T07:02:48;9.00;99.90
10788;DHT22;5446;50.826;4.380;2022-11-15T07:05:14;9.00;99.90
10788;DHT22;5446;50.826;4.380;2022-11-15T07:07:40;9.00;99.90
10788;DHT22;5446;50.826;4.380;2022-11-15T07:10:06;9.00;99.90
10788;DHT22;5446;50.826;4.380;2022-11-15T07:12:33;9.10;99.90
10788;DHT22;5446;50.826;4.380;2022-11-15T07:14:59;9.10;99.90
10788;DHT22;5446;50.826;4.380;2022-11-15T07:17:24;9.10;99.90
10788;DHT22;5446;50.826;4.380;2022-11-15T07:19:50;9.10;99.90
10788;DHT22;5446;50.826;4.380;2022-11-15T07:22:16;9.10;99.90
10788;DHT22;5446;50.826;4.380;2022-11-15T07:24:41;9.10;99.90
10788;DHT22;5446;50.826;4.380;2022-11-15T07:27:07;9.20;99.90
10788;DHT22;5446;50.826;4.380;2022-11-15T07:29:32;9.20;99.90
10788;DHT22;5446;50.826;4.380;2022-11-15T07:31:58;9.10;99.90
10788;DHT22;5446;50.826;4.380;2022-11-15T07:34:24;9.10;99.90
10788;DHT22;5446;50.826;4.380;2022-11-15T07:36:50;9.20;99.90
10788;DHT22;5446;50.826;4.380;2022-11-15T07:39:15;9.20;99.90
10788;DHT22;5446;50.826;4.380;2022-11-15T07:41:41;9.20;99.90
10788;DHT22;5446;50.826;4.380;2022-11-15T07:44:08;9.20;99.90
10788;DHT22;5446;50.826;4.380;2022-11-15T07:46:34;9.20;99.90
10788;DHT22;5446;50.826;4.380;2022-11-15T07:49:00;9.30;99.90
10788;DHT22;5446;50.826;4.380;2022-11-15T07:51:25;9.30;99.90
10788;DHT22;5446;50.826;4.380;2022-11-15T07:53:51;9.40;99.90
10788;DHT22;5446;50.826;4.380;2022-11-15T07:56:17;9.40;99.90
10788;DHT22;5446;50.826;4.380;2022-11-15T07:58:42;9.40;99.90
10788;DHT22;5446;50.826;4.380;2022-11-15T08:01:10;9.40;99.90
10788;DHT22;5446;50.826;4.380;2022-11-15T08:03:36;9.40;99.90
10788;DHT22;5446;50.826;4.380;2022-11-15T08:06:02;9.40;99.90
10788;DHT22;5446;50.826;4.380;2022-11-15T08:08:28;9.40;99.90
10788;DHT22;5446;50.826;4.380;2022-11-15T08:10:54;9.40;99.90
10788;DHT22;5446;50.826;4.380;2022-11-15T08:13:19;9.40;99.90
10788;DHT22;5446;50.826;4.380;2022-11-15T08:15:45;9.40;99.90
10788;DHT22;5446;50.826;4.380;2022-11-15T08:18:15;9.50;99.90
10788;DHT22;5446;50.826;4.380;2022-11-15T08:20:42;9.50;99.90
10788;DHT22;5446;50.826;4.380;2022-11-15T08:23:09;9.50;99.90
10788;DHT22;5446;50.826;4.380;2022-11-15T08:25:35;9.60;99.90
10788;DHT22;5446;50.826;4.380;2022-11-15T08:28:03;9.60;99.90
10788;DHT22;5446;50.826;4.380;2022-11-15T08:30:30;9.60;99.90
10788;DHT22;5446;50.826;4.380;2022-11-15T08:32:57;9.60;99.90
10788;DHT22;5446;50.826;4.380;2022-11-15T08:35:24;9.60;99.90
10788;DHT22;5446;50.826;4.380;2022-11-15T08:37:51;9.70;99.90
10788;DHT22;5446;50.826;4.380;2022-11-15T08:40:17;9.70;99.90
10788;DHT22;5446;50.826;4.380;2022-11-15T08:42:46;9.80;99.90
10788;DHT22;5446;50.826;4.380;2022-11-15T08:45:12;9.90;99.90
10788;DHT22;5446;50.826;4.380;2022-11-15T08:47:38;9.90;99.90
10788;DHT22;5446;50.826;4.380;2022-11-15T08:50:04;9.90;99.90
10788;DHT22;5446;50.826;4.380;2022-11-15T08:52:30;10.00;99.90
10788;DHT22;5446;50.826;4.380;2022-11-15T08:54:55;10.00;99.90
10788;DHT22;5446;50.826;4.380;2022-11-15T08:57:21;10.00;99.90
10788;DHT22;5446;50.826;4.380;2022-11-15T08:59:46;10.00;99.90
10788;DHT22;5446;50.826;4.380;2022-11-15T09:02:15;10.00;99.90
10788;DHT22;5446;50.826;4.380;2022-11-15T09:04:42;10.10;99.90
10788;DHT22;5446;50.826;4.380;2022-11-15T09:07:11;10.20;99.90
10788;DHT22;5446;50.826;4.380;2022-11-15T09:09:37;10.20;99.90
10788;DHT22;5446;50.826;4.380;2022-11-15T09:12:04;10.20;99.90
10788;DHT22;5446;50.826;4.380;2022-11-15T09:14:31;10.20;99.90
10788;DHT22;5446;50.826;4.380;2022-11-15T09:16:57;10.30;99.90
10788;DHT22;5446;50.826;4.380;2022-11-15T09:19:23;10.30;99.90
10788;DHT22;5446;50.826;4.380;2022-11-15T09:21:49;10.30;99.90
10788;DHT22;5446;50.826;4.380;2022-11-15T09:24:15;10.30;99.90
10788;DHT22;5446;50.826;4.380;2022-11-15T09:26:41;10.30;99.90
10788;DHT22;5446;50.826;4.380;2022-11-15T09:29:07;10.30;99.90
10788;DHT22;5446;50.826;4.380;2022-11-15T09:31:32;10.40;99.90
10788;DHT22;5446;50.826;4.380;2022-11-15T09:33:58;10.40;99.90
10788;DHT22;5446;50.826;4.380;2022-11-15T09:36:24;10.50;99.90
10788;DHT22;5446;50.826;4.380;2022-11-15T09:38:50;10.50;99.90
10788;DHT22;5446;50.826;4.380;2022-11-15T09:41:22;10.50;99.90
10788;DHT22;5446;50.826;4.380;2022-11-15T09:49:04;10.60;99.90
10788;DHT22;5446;50.826;4.380;2022-11-15T09:51:33;10.70;99.90
10788;DHT22;5446;50.826;4.380;2022-11-15T09:56:31;10.70;99.90
10788;DHT22;5446;50.826;4.380;2022-11-15T10:02:14;10.80;99.90
10788;DHT22;5446;50.826;4.380;2022-11-15T10:04:41;10.90;99.90
10788;DHT22;5446;50.826;4.380;2022-11-15T10:07:19;10.90;99.90
10788;DHT22;5446;50.826;4.380;2022-11-15T10:10:01;10.90;99.90
10788;DHT22;5446;50.826;4.380;2022-11-15T10:12:27;11.00;99.90
10788;DHT22;5446;50.826;4.380;2022-11-15T10:15:15;11.10;99.90
10788;DHT22;5446;50.826;4.380;2022-11-15T10:18:00;11.10;99.90
10788;DHT22;5446;50.826;4.380;2022-11-15T10:20:31;11.10;99.90
10788;DHT22;5446;50.826;4.380;2022-11-15T10:23:05;11.20;99.90
10788;DHT22;5446;50.826;4.380;2022-11-15T10:25:33;11.20;99.90
10788;DHT22;5446;50.826;4.380;2022-11-15T10:28:11;11.30;99.90
10788;DHT22;5446;50.826;4.380;2022-11-15T10:30:41;11.40;99.90
10788;DHT22;5446;50.826;4.380;2022-11-15T10:35:48;11.50;99.90
10788;DHT22;5446;50.826;4.380;2022-11-15T10:38:14;11.50;99.90
10788;DHT22;5446;50.826;4.380;2022-11-15T10:40:41;11.60;99.90
10788;DHT22;5446;50.826;4.380;2022-11-15T10:43:17;11.60;99.90
10788;DHT22;5446;50.826;4.380;2022-11-15T10:45:45;11.60;99.90
10788;DHT22;5446;50.826;4.380;2022-11-15T10:50:40;11.70;99.90
10788;DHT22;5446;50.826;4.380;2022-11-15T10:53:32;11.80;99.90
10788;DHT22;5446;50.826;4.380;2022-11-15T10:56:02;11.90;99.90
10788;DHT22;5446;50.826;4.380;2022-11-15T10:58:41;12.00;99.90
10788;DHT22;5446;50.826;4.380;2022-11-15T11:01:19;12.00;99.90
10788;DHT22;5446;50.826;4.380;2022-11-15T11:04:05;12.10;99.90
10788;DHT22;5446;50.826;4.380;2022-11-15T11:06:55;12.10;99.90
10788;DHT22;5446;50.826;4.380;2022-11-15T11:11:53;12.20;99.90
10788;DHT22;5446;50.826;4.380;2022-11-15T11:14:33;12.20;99.90
10788;DHT22;5446;50.826;4.380;2022-11-15T11:22:11;12.30;99.90
10788;DHT22;5446;50.826;4.380;2022-11-15T11:30:18;12.50;99.90
10788;DHT22;5446;50.826;4.380;2022-11-15T11:32:57;12.50;99.90
10788;DHT22;5446;50.826;4.380;2022-11-15T11:35:30;12.50;99.90
10788;DHT22;5446;50.826;4.380;2022-11-15T11:40:37;12.70;99.90
10788;DHT22;5446;50.826;4.380;2022-11-15T11:43:41;12.70;99.90
10788;DHT22;5446;50.826;4.380;2022-11-15T11:46:29;12.70;99.90
10788;DHT22;5446;50.826;4.380;2022-11-15T11:51:42;12.70;99.90
10788;DHT22;5446;50.826;4.380;2022-11-15T11:54:29;12.70;99.90
10788;DHT22;5446;50.826;4.380;2022-11-15T11:56:58;12.70;99.90
10788;DHT22;5446;50.826;4.380;2022-11-15T12:01:54;12.80;99.90
10788;DHT22;5446;50.826;4.380;2022-11-15T12:04:32;12.80;99.90
10788;DHT22;5446;50.826;4.380;2022-11-15T12:07:09;12.80;99.90
10788;DHT22;5446;50.826;4.380;2022-11-15T12:09:46;12.80;99.90
10788;DHT22;5446;50.826;4.380;2022-11-15T12:17:21;12.80;99.90
10788;DHT22;5446;50.826;4.380;2022-11-15T12:19:48;12.80;99.90
10788;DHT22;5446;50.826;4.380;2022-11-15T12:22:20;12.90;99.90
10788;DHT22;5446;50.826;4.380;2022-11-15T12:24:55;12.90;99.90
10788;DHT22;5446;50.826;4.380;2022-11-15T12:29:53;12.90;99.90
10788;DHT22;5446;50.826;4.380;2022-11-15T12:32:34;12.90;99.90
10788;DHT22;5446;50.826;4.380;2022-11-15T12:35:02;12.90;99.90
10788;DHT22;5446;50.826;4.380;2022-11-15T12:42:44;12.90;99.90
10788;DHT22;5446;50.826;4.380;2022-11-15T12:45:39;12.90;99.90
10788;DHT22;5446;50.826;4.380;2022-11-15T13:01:09;13.20;99.90
10788;DHT22;5446;50.826;4.380;2022-11-15T13:03:35;13.20;99.90
10788;DHT22;5446;50.826;4.380;2022-11-15T13:06:47;13.30;99.90
10788;DHT22;5446;50.826;4.380;2022-11-15T13:11:58;13.30;99.90
10788;DHT22;5446;50.826;4.380;2022-11-15T13:17:24;13.40;99.90
10788;DHT22;5446;50.826;4.380;2022-11-15T13:20:02;13.30;99.90
10788;DHT22;5446;50.826;4.380;2022-11-15T13:23:30;13.30;99.90
10788;DHT22;5446;50.826;4.380;2022-11-15T13:31:01;13.30;99.90
10788;DHT22;5446;50.826;4.380;2022-11-15T13:35:55;13.30;99.90
10788;DHT22;5446;50.826;4.380;2022-11-15T13:38:26;13.20;99.90
10788;DHT22;5446;50.826;4.380;2022-11-15T13:40:52;13.20;99.90
10788;DHT22;5446;50.826;4.380;2022-11-15T13:48:38;13.20;99.90
10788;DHT22;5446;50.826;4.380;2022-11-15T13:51:13;13.20;99.90
10788;DHT22;5446;50.826;4.380;2022-11-15T13:53:42;13.30;99.90
10788;DHT22;5446;50.826;4.380;2022-11-15T13:56:08;13.30;99.90
10788;DHT22;5446;50.826;4.380;2022-11-15T13:58:38;13.30;99.90
10788;DHT22;5446;50.826;4.380;2022-11-15T14:01:05;13.30;99.90
10788;DHT22;5446;50.826;4.380;2022-11-15T14:03:34;13.30;99.90
10788;DHT22;5446;50.826;4.380;2022-11-15T14:08:28;13.20;99.90
10788;DHT22;5446;50.826;4.380;2022-11-15T14:11:09;13.20;99.90
10788;DHT22;5446;50.826;4.380;2022-11-15T14:13:35;13.20;99.90
10788;DHT22;5446;50.826;4.380;2022-11-15T14:16:15;13.20;99.90
10788;DHT22;5446;50.826;4.380;2022-11-15T14:21:14;13.10;99.90
10788;DHT22;5446;50.826;4.380;2022-11-15T14:23:40;13.10;99.90
10788;DHT22;5446;50.826;4.380;2022-11-15T14:28:56;13.10;99.90
10788;DHT22;5446;50.826;4.380;2022-11-15T14:31:22;13.00;99.90
10788;DHT22;5446;50.826;4.380;2022-11-15T14:33:53;12.90;99.90
10788;DHT22;5446;50.826;4.380;2022-11-15T14:36:20;12.80;99.90
10788;DHT22;5446;50.826;4.380;2022-11-15T14:38:47;12.80;99.90
10788;DHT22;5446;50.826;4.380;2022-11-15T14:41:22;12.80;99.90
10788;DHT22;5446;50.826;4.380;2022-11-15T14:43:49;12.80;99.90
10788;DHT22;5446;50.826;4.380;2022-11-15T14:46:15;12.70;99.90
10788;DHT22;5446;50.826;4.380;2022-11-15T14:48:40;12.70;99.90
10788;DHT22;5446;50.826;4.380;2022-11-15T14:51:24;12.70;99.90
10788;DHT22;5446;50.826;4.380;2022-11-15T14:53:51;12.60;99.90
10788;DHT22;5446;50.826;4.380;2022-11-15T14:56:16;12.60;99.90
10788;DHT22;5446;50.826;4.380;2022-11-15T14:58:42;12.60;99.90
10788;DHT22;5446;50.826;4.380;2022-11-15T15:01:17;12.60;99.90
10788;DHT22;5446;50.826;4.380;2022-11-15T15:03:43;12.60;99.90
10788;DHT22;5446;50.826;4.380;2022-11-15T15:06:09;12.70;99.90
10788;DHT22;5446;50.826;4.380;2022-11-15T15:08:35;12.60;99.90
10788;DHT22;5446;50.826;4.380;2022-11-15T15:11:01;12.60;99.90
10788;DHT22;5446;50.826;4.380;2022-11-15T15:13:26;12.60;99.90
10788;DHT22;5446;50.826;4.380;2022-11-15T15:15:54;12.60;99.90
10788;DHT22;5446;50.826;4.380;2022-11-15T15:18:20;12.60;99.90
10788;DHT22;5446;50.826;4.380;2022-11-15T15:20:58;12.50;99.90
10788;DHT22;5446;50.826;4.380;2022-11-15T15:23:28;12.40;99.90
10788;DHT22;5446;50.826;4.380;2022-11-15T15:25:57;12.40;99.90
10788;DHT22;5446;50.826;4.380;2022-11-15T15:28:22;12.30;99.90
10788;DHT22;5446;50.826;4.380;2022-11-15T15:30:48;12.30;99.90
10788;DHT22;5446;50.826;4.380;2022-11-15T15:33:15;12.30;99.90
10788;DHT22;5446;50.826;4.380;2022-11-15T15:35:41;12.30;99.90
10788;DHT22;5446;50.826;4.380;2022-11-15T15:38:11;12.30;99.90
10788;DHT22;5446;50.826;4.380;2022-11-15T15:40:38;12.30;99.90
10788;DHT22;5446;50.826;4.380;2022-11-15T15:43:03;12.20;99.90
10788;DHT22;5446;50.826;4.380;2022-11-15T15:45:29;12.20;99.90
10788;DHT22;5446;50.826;4.380;2022-11-15T15:47:56;12.20;99.90
10788;DHT22;5446;50.826;4.380;2022-11-15T15:50:32;12.20;99.90
10788;DHT22;5446;50.826;4.380;2022-11-15T15:53:00;12.20;99.90
10788;DHT22;5446;50.826;4.380;2022-11-15T15:55:26;12.10;99.90
10788;DHT22;5446;50.826;4.380;2022-11-15T15:57:52;12.10;99.90
10788;DHT22;5446;50.826;4.380;2022-11-15T16:00:19;12.10;99.90
10788;DHT22;5446;50.826;4.380;2022-11-15T16:02:45;12.10;99.90
10788;DHT22;5446;50.826;4.380;2022-11-15T16:05:11;12.10;99.90
10788;DHT22;5446;50.826;4.380;2022-11-15T16:07:38;12.10;99.90
10788;DHT22;5446;50.826;4.380;2022-11-15T16:10:31;12.10;99.90
10788;DHT22;5446;50.826;4.380;2022-11-15T16:12:57;12.10;99.90
10788;DHT22;5446;50.826;4.380;2022-11-15T16:15:25;12.10;99.90
10788;DHT22;5446;50.826;4.380;2022-11-15T16:17:56;12.10;99.90
10788;DHT22;5446;50.826;4.380;2022-11-15T16:20:36;12.10;99.90
10788;DHT22;5446;50.826;4.380;2022-11-15T16:23:04;12.10;99.90
10788;DHT22;5446;50.826;4.380;2022-11-15T16:25:34;12.10;99.90
10788;DHT22;5446;50.826;4.380;2022-11-15T16:28:02;12.10;99.90
10788;DHT22;5446;50.826;4.380;2022-11-15T16:30:27;12.10;99.90
10788;DHT22;5446;50.826;4.380;2022-11-15T16:32:53;12.10;99.90
10788;DHT22;5446;50.826;4.380;2022-11-15T16:35:19;12.10;99.90
10788;DHT22;5446;50.826;4.380;2022-11-15T16:37:44;12.10;99.90
10788;DHT22;5446;50.826;4.380;2022-11-15T16:40:32;12.10;99.90
10788;DHT22;5446;50.826;4.380;2022-11-15T16:42:59;12.10;99.90
10788;DHT22;5446;50.826;4.380;2022-11-15T16:45:27;12.00;99.90
10788;DHT22;5446;50.826;4.380;2022-11-15T16:47:56;12.10;99.90
10788;DHT22;5446;50.826;4.380;2022-11-15T16:50:31;12.00;99.90
10788;DHT22;5446;50.826;4.380;2022-11-15T16:52:59;12.10;99.90
10788;DHT22;5446;50.826;4.380;2022-11-15T16:55:28;12.10;99.90
10788;DHT22;5446;50.826;4.380;2022-11-15T16:57:54;12.10;99.90
10788;DHT22;5446;50.826;4.380;2022-11-15T17:00:23;12.10;99.90
10788;DHT22;5446;50.826;4.380;2022-11-15T17:02:50;12.00;99.90
10788;DHT22;5446;50.826;4.380;2022-11-15T17:05:18;12.00;99.90
10788;DHT22;5446;50.826;4.380;2022-11-15T17:07:47;12.00;99.90
10788;DHT22;5446;50.826;4.380;2022-11-15T17:10:19;12.00;99.90
10788;DHT22;5446;50.826;4.380;2022-11-15T17:12:45;12.00;99.90
10788;DHT22;5446;50.826;4.380;2022-11-15T17:15:12;12.00;99.90
10788;DHT22;5446;50.826;4.380;2022-11-15T17:17:38;12.10;99.90
10788;DHT22;5446;50.826;4.380;2022-11-15T17:20:05;12.00;99.90
10788;DHT22;5446;50.826;4.380;2022-11-15T17:22:35;12.10;99.90
10788;DHT22;5446;50.826;4.380;2022-11-15T17:25:02;12.10;99.90
10788;DHT22;5446;50.826;4.380;2022-11-15T17:27:27;12.10;99.90
10788;DHT22;5446;50.826;4.380;2022-11-15T17:29:54;12.10;99.90
10788;DHT22;5446;50.826;4.380;2022-11-15T17:32:20;12.10;99.90
10788;DHT22;5446;50.826;4.380;2022-11-15T17:34:46;12.10;99.90
10788;DHT22;5446;50.826;4.380;2022-11-15T17:37:11;12.10;99.90
10788;DHT22;5446;50.826;4.380;2022-11-15T17:39:37;12.10;99.90
10788;DHT22;5446;50.826;4.380;2022-11-15T17:42:03;12.10;99.90
10788;DHT22;5446;50.826;4.380;2022-11-15T17:44:28;12.10;99.90
10788;DHT22;5446;50.826;4.380;2022-11-15T17:46:54;12.10;99.90
10788;DHT22;5446;50.826;4.380;2022-11-15T17:49:20;12.00;99.90
10788;DHT22;5446;50.826;4.380;2022-11-15T17:51:46;12.00;99.90
10788;DHT22;5446;50.826;4.380;2022-11-15T17:54:11;12.10;99.90
10788;DHT22;5446;50.826;4.380;2022-11-15T17:56:39;12.00;99.90
10788;DHT22;5446;50.826;4.380;2022-11-15T17:59:06;12.00;99.90
10788;DHT22;5446;50.826;4.380;2022-11-15T18:01:33;12.00;99.90